sensor_id;sensor_type;location;lat;lon;timestamp;P1;durP1;ratioP1;P2;durP2;ratioP2
21806;SDS011;11065;50.786;7.840;2024-02-21T00:00:40;9.23;;;4.40;;
21806;SDS011;11065;50.786;7.840;2024-02-21T00:03:08;10.80;;;4.23;;
21806;SDS011;11065;50.786;7.840;2024-02-21T00:05:36;9.60;;;4.00;;
21806;SDS011;11065;50.786;7.840;2024-02-21T00:08:04;9.73;;;5.17;;
21806;SDS011;11065;50.786;7.840;2024-02-21T00:10:33;10.20;;;5.00;;
21806;SDS011;11065;50.786;7.840;2024-02-21T00:13:03;9.70;;;5.57;;
21806;SDS011;11065;50.786;7.840;2024-02-21T00:15:31;10.53;;;4.70;;
21806;SDS011;11065;50.786;7.840;2024-02-21T00:17:59;7.27;;;4.07;;
21806;SDS011;11065;50.786;7.840;2024-02-21T00:20:27;7.03;;;3.73;;
21806;SDS011;11065;50.786;7.840;2024-02-21T00:22:55;8.97;;;4.13;;
21806;SDS011;11065;50.786;7.840;2024-02-21T00:25:23;10.17;;;4.53;;
21806;SDS011;11065;50.786;7.840;2024-02-21T00:27:51;11.50;;;4.93;;
21806;SDS011;11065;50.786;7.840;2024-02-21T00:30:21;12.37;;;5.30;;
21806;SDS011;11065;50.786;7.840;2024-02-21T00:32:49;9.47;;;5.17;;
21806;SDS011;11065;50.786;7.840;2024-02-21T00:35:17;8.77;;;5.13;;
21806;SDS011;11065;50.786;7.840;2024-02-21T00:37:45;9.57;;;4.73;;
21806;SDS011;11065;50.786;7.840;2024-02-21T00:40:13;7.93;;;5.03;;
21806;SDS011;11065;50.786;7.840;2024-02-21T00:42:46;10.83;;;4.90;;
21806;SDS011;11065;50.786;7.840;2024-02-21T00:45:14;9.53;;;4.70;;
21806;SDS011;11065;50.786;7.840;2024-02-21T00:47:43;11.87;;;5.30;;
21806;SDS011;11065;50.786;7.840;2024-02-21T00:50:12;10.73;;;5.63;;
21806;SDS011;11065;50.786;7.840;2024-02-21T00:52:40;10.20;;;5.43;;
21806;SDS011;11065;50.786;7.840;2024-02-21T00:55:08;9.47;;;5.07;;
21806;SDS011;11065;50.786;7.840;2024-02-21T00:57:37;9.33;;;5.00;;
21806;SDS011;11065;50.786;7.840;2024-02-21T01:00:05;8.43;;;4.70;;
21806;SDS011;11065;50.786;7.840;2024-02-21T01:02:34;11.70;;;4.87;;
21806;SDS011;11065;50.786;7.840;2024-02-21T01:05:03;9.53;;;5.27;;
21806;SDS011;11065;50.786;7.840;2024-02-21T01:07:32;9.20;;;5.13;;
21806;SDS011;11065;50.786;7.840;2024-02-21T01:10:00;9.43;;;4.60;;
21806;SDS011;11065;50.786;7.840;2024-02-21T01:12:28;11.63;;;5.33;;
21806;SDS011;11065;50.786;7.840;2024-02-21T01:14:56;8.97;;;4.67;;
21806;SDS011;11065;50.786;7.840;2024-02-21T01:17:24;8.10;;;4.60;;
21806;SDS011;11065;50.786;7.840;2024-02-21T01:19:52;8.67;;;5.03;;
21806;SDS011;11065;50.786;7.840;2024-02-21T01:22:21;10.57;;;4.37;;
21806;SDS011;11065;50.786;7.840;2024-02-21T01:24:49;7.30;;;4.47;;
21806;SDS011;11065;50.786;7.840;2024-02-21T01:27:17;9.73;;;4.40;;
21806;SDS011;11065;50.786;7.840;2024-02-21T01:29:45;11.00;;;5.27;;
21806;SDS011;11065;50.786;7.840;2024-02-21T01:32:15;8.97;;;4.93;;
21806;SDS011;11065;50.786;7.840;2024-02-21T01:34:43;10.97;;;5.40;;
21806;SDS011;11065;50.786;7.840;2024-02-21T01:37:12;9.63;;;4.70;;
21806;SDS011;11065;50.786;7.840;2024-02-21T01:39:41;11.50;;;4.90;;
21806;SDS011;11065;50.786;7.840;2024-02-21T01:42:09;9.93;;;4.57;;
21806;SDS011;11065;50.786;7.840;2024-02-21T01:44:37;10.43;;;5.10;;
21806;SDS011;11065;50.786;7.840;2024-02-21T01:47:05;9.00;;;4.60;;
21806;SDS011;11065;50.786;7.840;2024-02-21T01:49:33;6.00;;;3.80;;
21806;SDS011;11065;50.786;7.840;2024-02-21T01:52:01;9.87;;;4.97;;
21806;SDS011;11065;50.786;7.840;2024-02-21T01:54:30;10.10;;;5.13;;
21806;SDS011;11065;50.786;7.840;2024-02-21T01:57:00;8.37;;;4.40;;
21806;SDS011;11065;50.786;7.840;2024-02-21T01:59:28;9.27;;;4.37;;
21806;SDS011;11065;50.786;7.840;2024-02-21T02:01:56;12.00;;;5.47;;
21806;SDS011;11065;50.786;7.840;2024-02-21T02:04:25;11.30;;;4.80;;
21806;SDS011;11065;50.786;7.840;2024-02-21T02:06:54;7.77;;;4.47;;
21806;SDS011;11065;50.786;7.840;2024-02-21T02:09:22;9.97;;;4.47;;
21806;SDS011;11065;50.786;7.840;2024-02-21T02:11:50;12.43;;;4.23;;
21806;SDS011;11065;50.786;7.840;2024-02-21T02:14:20;9.57;;;4.03;;
21806;SDS011;11065;50.786;7.840;2024-02-21T02:16:48;8.57;;;4.30;;
21806;SDS011;11065;50.786;7.840;2024-02-21T02:19:16;7.87;;;3.87;;
21806;SDS011;11065;50.786;7.840;2024-02-21T02:21:46;8.83;;;4.87;;
21806;SDS011;11065;50.786;7.840;2024-02-21T02:24:21;11.27;;;4.63;;
21806;SDS011;11065;50.786;7.840;2024-02-21T02:26:51;8.17;;;4.20;;
21806;SDS011;11065;50.786;7.840;2024-02-21T02:29:19;9.87;;;4.70;;
21806;SDS011;11065;50.786;7.840;2024-02-21T02:31:47;9.63;;;3.67;;
21806;SDS011;11065;50.786;7.840;2024-02-21T02:34:16;9.03;;;3.90;;
21806;SDS011;11065;50.786;7.840;2024-02-21T02:36:44;9.30;;;4.73;;
21806;SDS011;11065;50.786;7.840;2024-02-21T02:39:12;10.07;;;4.60;;
21806;SDS011;11065;50.786;7.840;2024-02-21T02:41:41;6.77;;;4.07;;
21806;SDS011;11065;50.786;7.840;2024-02-21T02:44:09;8.03;;;3.57;;
21806;SDS011;11065;50.786;7.840;2024-02-21T02:46:39;7.23;;;3.53;;
21806;SDS011;11065;50.786;7.840;2024-02-21T02:49:08;7.37;;;4.00;;
21806;SDS011;11065;50.786;7.840;2024-02-21T02:51:36;8.77;;;4.60;;
21806;SDS011;11065;50.786;7.840;2024-02-21T02:54:04;8.37;;;4.07;;
21806;SDS011;11065;50.786;7.840;2024-02-21T02:56:32;9.53;;;4.70;;
21806;SDS011;11065;50.786;7.840;2024-02-21T02:59:01;8.00;;;3.93;;
21806;SDS011;11065;50.786;7.840;2024-02-21T03:01:32;8.87;;;4.20;;
21806;SDS011;11065;50.786;7.840;2024-02-21T03:04:01;8.00;;;3.37;;
21806;SDS011;11065;50.786;7.840;2024-02-21T03:06:29;7.83;;;3.87;;
21806;SDS011;11065;50.786;7.840;2024-02-21T03:08:57;6.60;;;3.67;;
21806;SDS011;11065;50.786;7.840;2024-02-21T03:11:26;9.30;;;4.07;;
21806;SDS011;11065;50.786;7.840;2024-02-21T03:13:56;6.53;;;3.60;;
21806;SDS011;11065;50.786;7.840;2024-02-21T03:16:25;7.00;;;3.47;;
21806;SDS011;11065;50.786;7.840;2024-02-21T03:18:53;9.07;;;3.90;;
21806;SDS011;11065;50.786;7.840;2024-02-21T03:21:21;8.70;;;3.77;;
21806;SDS011;11065;50.786;7.840;2024-02-21T03:23:49;7.43;;;3.90;;
21806;SDS011;11065;50.786;7.840;2024-02-21T03:26:17;8.83;;;3.87;;
21806;SDS011;11065;50.786;7.840;2024-02-21T03:28:45;6.67;;;3.37;;
21806;SDS011;11065;50.786;7.840;2024-02-21T03:31:13;6.47;;;3.40;;
21806;SDS011;11065;50.786;7.840;2024-02-21T03:33:43;8.73;;;3.77;;
21806;SDS011;11065;50.786;7.840;2024-02-21T03:36:13;5.50;;;3.27;;
21806;SDS011;11065;50.786;7.840;2024-02-21T03:38:41;9.77;;;4.13;;
21806;SDS011;11065;50.786;7.840;2024-02-21T03:41:09;6.70;;;3.53;;
21806;SDS011;11065;50.786;7.840;2024-02-21T03:43:37;8.87;;;3.77;;
21806;SDS011;11065;50.786;7.840;2024-02-21T03:46:05;7.53;;;3.37;;
21806;SDS011;11065;50.786;7.840;2024-02-21T03:48:34;6.20;;;3.30;;
21806;SDS011;11065;50.786;7.840;2024-02-21T03:51:05;7.50;;;3.23;;
21806;SDS011;11065;50.786;7.840;2024-02-21T03:53:33;8.90;;;4.20;;
21806;SDS011;11065;50.786;7.840;2024-02-21T03:56:01;7.03;;;3.93;;
21806;SDS011;11065;50.786;7.840;2024-02-21T03:58:30;6.47;;;3.57;;
21806;SDS011;11065;50.786;7.840;2024-02-21T04:00:59;6.70;;;3.40;;
21806;SDS011;11065;50.786;7.840;2024-02-21T04:03:28;7.50;;;3.20;;
21806;SDS011;11065;50.786;7.840;2024-02-21T04:05:56;10.47;;;3.80;;
21806;SDS011;11065;50.786;7.840;2024-02-21T04:08:25;5.53;;;2.73;;
21806;SDS011;11065;50.786;7.840;2024-02-21T04:10:53;9.30;;;3.90;;
21806;SDS011;11065;50.786;7.840;2024-02-21T04:13:22;8.07;;;2.90;;
21806;SDS011;11065;50.786;7.840;2024-02-21T04:15:50;10.10;;;3.27;;
21806;SDS011;11065;50.786;7.840;2024-02-21T04:18:18;6.40;;;3.07;;
21806;SDS011;11065;50.786;7.840;2024-02-21T04:20:46;8.37;;;2.80;;
21806;SDS011;11065;50.786;7.840;2024-02-21T04:23:14;6.70;;;3.07;;
21806;SDS011;11065;50.786;7.840;2024-02-21T04:25:43;6.90;;;3.07;;
21806;SDS011;11065;50.786;7.840;2024-02-21T04:28:11;6.47;;;3.57;;
21806;SDS011;11065;50.786;7.840;2024-02-21T04:30:39;8.20;;;3.60;;
21806;SDS011;11065;50.786;7.840;2024-02-21T04:33:07;9.77;;;3.10;;
21806;SDS011;11065;50.786;7.840;2024-02-21T04:35:35;7.23;;;3.47;;
21806;SDS011;11065;50.786;7.840;2024-02-21T04:38:04;7.67;;;3.33;;
21806;SDS011;11065;50.786;7.840;2024-02-21T04:40:32;8.27;;;3.10;;
21806;SDS011;11065;50.786;7.840;2024-02-21T04:43:02;7.40;;;3.37;;
21806;SDS011;11065;50.786;7.840;2024-02-21T04:45:30;8.27;;;3.50;;
21806;SDS011;11065;50.786;7.840;2024-02-21T04:47:58;7.97;;;3.50;;
21806;SDS011;11065;50.786;7.840;2024-02-21T04:50:26;6.07;;;2.90;;
21806;SDS011;11065;50.786;7.840;2024-02-21T04:52:54;6.40;;;2.87;;
21806;SDS011;11065;50.786;7.840;2024-02-21T04:55:22;7.20;;;3.90;;
21806;SDS011;11065;50.786;7.840;2024-02-21T04:57:50;7.40;;;3.20;;
21806;SDS011;11065;50.786;7.840;2024-02-21T05:00:20;7.47;;;3.30;;
21806;SDS011;11065;50.786;7.840;2024-02-21T05:02:48;8.10;;;3.00;;
21806;SDS011;11065;50.786;7.840;2024-02-21T05:05:16;8.53;;;3.30;;
21806;SDS011;11065;50.786;7.840;2024-02-21T05:07:44;9.20;;;3.20;;
21806;SDS011;11065;50.786;7.840;2024-02-21T05:10:12;6.70;;;2.63;;
21806;SDS011;11065;50.786;7.840;2024-02-21T05:12:40;8.67;;;3.50;;
21806;SDS011;11065;50.786;7.840;2024-02-21T05:15:08;6.47;;;3.23;;
21806;SDS011;11065;50.786;7.840;2024-02-21T05:17:38;8.63;;;3.33;;
21806;SDS011;11065;50.786;7.840;2024-02-21T05:20:06;6.87;;;2.97;;
21806;SDS011;11065;50.786;7.840;2024-02-21T05:22:35;8.40;;;3.43;;
21806;SDS011;11065;50.786;7.840;2024-02-21T05:25:03;8.83;;;3.50;;
21806;SDS011;11065;50.786;7.840;2024-02-21T05:27:31;6.73;;;3.13;;
21806;SDS011;11065;50.786;7.840;2024-02-21T05:29:59;7.83;;;3.30;;
21806;SDS011;11065;50.786;7.840;2024-02-21T05:32:27;6.50;;;3.47;;
21806;SDS011;11065;50.786;7.840;2024-02-21T05:34:57;6.73;;;3.07;;
21806;SDS011;11065;50.786;7.840;2024-02-21T05:37:25;6.97;;;3.23;;
21806;SDS011;11065;50.786;7.840;2024-02-21T05:39:53;8.23;;;2.93;;
21806;SDS011;11065;50.786;7.840;2024-02-21T05:42:21;8.03;;;3.20;;
21806;SDS011;11065;50.786;7.840;2024-02-21T05:44:49;7.83;;;2.90;;
21806;SDS011;11065;50.786;7.840;2024-02-21T05:47:17;6.33;;;2.87;;
21806;SDS011;11065;50.786;7.840;2024-02-21T05:49:46;7.73;;;3.00;;
21806;SDS011;11065;50.786;7.840;2024-02-21T05:52:16;7.27;;;3.47;;
21806;SDS011;11065;50.786;7.840;2024-02-21T05:54:44;7.77;;;3.40;;
21806;SDS011;11065;50.786;7.840;2024-02-21T05:57:14;8.03;;;2.93;;
21806;SDS011;11065;50.786;7.840;2024-02-21T05:59:43;8.07;;;2.67;;
21806;SDS011;11065;50.786;7.840;2024-02-21T06:02:11;5.87;;;2.60;;
21806;SDS011;11065;50.786;7.840;2024-02-21T06:04:39;8.57;;;3.37;;
21806;SDS011;11065;50.786;7.840;2024-02-21T06:07:09;9.03;;;3.40;;
21806;SDS011;11065;50.786;7.840;2024-02-21T06:09:38;7.23;;;2.87;;
21806;SDS011;11065;50.786;7.840;2024-02-21T06:12:07;8.73;;;3.00;;
21806;SDS011;11065;50.786;7.840;2024-02-21T06:14:35;10.60;;;3.47;;
21806;SDS011;11065;50.786;7.840;2024-02-21T06:17:03;7.83;;;3.03;;
21806;SDS011;11065;50.786;7.840;2024-02-21T06:19:31;7.87;;;3.10;;
21806;SDS011;11065;50.786;7.840;2024-02-21T06:21:59;7.33;;;3.30;;
21806;SDS011;11065;50.786;7.840;2024-02-21T06:24:27;8.20;;;2.93;;
21806;SDS011;11065;50.786;7.840;2024-02-21T06:26:56;9.27;;;3.90;;
21806;SDS011;11065;50.786;7.840;2024-02-21T06:29:24;7.17;;;2.93;;
21806;SDS011;11065;50.786;7.840;2024-02-21T06:31:52;10.33;;;4.03;;
21806;SDS011;11065;50.786;7.840;2024-02-21T06:34:20;8.47;;;3.30;;
21806;SDS011;11065;50.786;7.840;2024-02-21T06:36:49;7.73;;;3.03;;
21806;SDS011;11065;50.786;7.840;2024-02-21T06:39:16;7.60;;;2.90;;
21806;SDS011;11065;50.786;7.840;2024-02-21T06:41:44;8.27;;;3.10;;
21806;SDS011;11065;50.786;7.840;2024-02-21T06:44:15;7.50;;;3.30;;
21806;SDS011;11065;50.786;7.840;2024-02-21T06:46:43;8.83;;;3.33;;
21806;SDS011;11065;50.786;7.840;2024-02-21T06:49:11;6.13;;;3.20;;
21806;SDS011;11065;50.786;7.840;2024-02-21T06:51:42;8.07;;;3.40;;
21806;SDS011;11065;50.786;7.840;2024-02-21T06:54:10;7.37;;;3.30;;
21806;SDS011;11065;50.786;7.840;2024-02-21T06:56:39;10.47;;;3.70;;
21806;SDS011;11065;50.786;7.840;2024-02-21T06:59:07;7.73;;;2.90;;
21806;SDS011;11065;50.786;7.840;2024-02-21T07:01:38;8.70;;;3.30;;
21806;SDS011;11065;50.786;7.840;2024-02-21T07:04:06;9.17;;;3.60;;
21806;SDS011;11065;50.786;7.840;2024-02-21T07:06:34;7.67;;;3.00;;
21806;SDS011;11065;50.786;7.840;2024-02-21T07:09:02;8.17;;;3.53;;
21806;SDS011;11065;50.786;7.840;2024-02-21T07:11:30;7.60;;;3.63;;
21806;SDS011;11065;50.786;7.840;2024-02-21T07:13:58;7.27;;;3.07;;
21806;SDS011;11065;50.786;7.840;2024-02-21T07:16:26;5.50;;;2.93;;
21806;SDS011;11065;50.786;7.840;2024-02-21T07:18:56;7.93;;;3.30;;
21806;SDS011;11065;50.786;7.840;2024-02-21T07:21:24;6.60;;;2.67;;
21806;SDS011;11065;50.786;7.840;2024-02-21T07:23:52;6.17;;;2.90;;
21806;SDS011;11065;50.786;7.840;2024-02-21T07:26:20;6.53;;;3.03;;
21806;SDS011;11065;50.786;7.840;2024-02-21T07:28:48;7.90;;;3.10;;
21806;SDS011;11065;50.786;7.840;2024-02-21T07:31:16;6.80;;;2.77;;
21806;SDS011;11065;50.786;7.840;2024-02-21T07:33:44;7.20;;;2.97;;
21806;SDS011;11065;50.786;7.840;2024-02-21T07:36:14;6.53;;;3.33;;
21806;SDS011;11065;50.786;7.840;2024-02-21T07:38:43;7.27;;;2.63;;
21806;SDS011;11065;50.786;7.840;2024-02-21T07:41:11;10.70;;;3.70;;
21806;SDS011;11065;50.786;7.840;2024-02-21T07:43:39;8.60;;;3.60;;
21806;SDS011;11065;50.786;7.840;2024-02-21T07:46:07;8.37;;;3.50;;
21806;SDS011;11065;50.786;7.840;2024-02-21T07:48:36;7.83;;;3.87;;
21806;SDS011;11065;50.786;7.840;2024-02-21T07:51:04;7.30;;;3.10;;
21806;SDS011;11065;50.786;7.840;2024-02-21T07:53:33;8.57;;;3.83;;
21806;SDS011;11065;50.786;7.840;2024-02-21T07:56:01;7.20;;;3.50;;
21806;SDS011;11065;50.786;7.840;2024-02-21T07:58:30;7.17;;;3.20;;
21806;SDS011;11065;50.786;7.840;2024-02-21T08:00:57;8.23;;;3.40;;
21806;SDS011;11065;50.786;7.840;2024-02-21T08:03:25;6.83;;;2.90;;
21806;SDS011;11065;50.786;7.840;2024-02-21T08:05:53;8.17;;;3.17;;
21806;SDS011;11065;50.786;7.840;2024-02-21T08:08:22;5.57;;;2.77;;
21806;SDS011;11065;50.786;7.840;2024-02-21T08:10:52;7.43;;;3.20;;
21806;SDS011;11065;50.786;7.840;2024-02-21T08:13:20;9.07;;;4.33;;
21806;SDS011;11065;50.786;7.840;2024-02-21T08:15:48;7.73;;;3.00;;
21806;SDS011;11065;50.786;7.840;2024-02-21T08:18:16;6.77;;;3.23;;
21806;SDS011;11065;50.786;7.840;2024-02-21T08:20:44;6.13;;;3.43;;
21806;SDS011;11065;50.786;7.840;2024-02-21T08:23:15;6.73;;;3.20;;
21806;SDS011;11065;50.786;7.840;2024-02-21T08:25:43;6.73;;;3.57;;
21806;SDS011;11065;50.786;7.840;2024-02-21T08:28:13;6.77;;;2.87;;
21806;SDS011;11065;50.786;7.840;2024-02-21T08:30:41;6.93;;;3.60;;
21806;SDS011;11065;50.786;7.840;2024-02-21T08:33:14;6.97;;;3.17;;
21806;SDS011;11065;50.786;7.840;2024-02-21T08:35:44;6.43;;;3.33;;
21806;SDS011;11065;50.786;7.840;2024-02-21T08:38:11;6.63;;;3.50;;
21806;SDS011;11065;50.786;7.840;2024-02-21T08:40:40;7.57;;;3.83;;
21806;SDS011;11065;50.786;7.840;2024-02-21T08:43:08;7.33;;;4.00;;
21806;SDS011;11065;50.786;7.840;2024-02-21T08:45:37;7.97;;;4.50;;
21806;SDS011;11065;50.786;7.840;2024-02-21T08:48:05;7.53;;;3.10;;
21806;SDS011;11065;50.786;7.840;2024-02-21T08:50:34;7.67;;;3.00;;
21806;SDS011;11065;50.786;7.840;2024-02-21T08:53:04;5.37;;;2.80;;
21806;SDS011;11065;50.786;7.840;2024-02-21T08:55:32;7.40;;;3.30;;
21806;SDS011;11065;50.786;7.840;2024-02-21T08:58:02;8.63;;;3.50;;
21806;SDS011;11065;50.786;7.840;2024-02-21T09:00:31;8.03;;;3.37;;
21806;SDS011;11065;50.786;7.840;2024-02-21T09:03:00;6.70;;;3.20;;
21806;SDS011;11065;50.786;7.840;2024-02-21T09:05:28;7.47;;;3.63;;
21806;SDS011;11065;50.786;7.840;2024-02-21T09:07:56;8.63;;;3.40;;
21806;SDS011;11065;50.786;7.840;2024-02-21T09:10:24;7.03;;;3.37;;
21806;SDS011;11065;50.786;7.840;2024-02-21T09:12:52;8.87;;;3.37;;
21806;SDS011;11065;50.786;7.840;2024-02-21T09:15:21;6.33;;;2.80;;
21806;SDS011;11065;50.786;7.840;2024-02-21T09:17:50;7.97;;;3.27;;
21806;SDS011;11065;50.786;7.840;2024-02-21T09:20:20;6.63;;;3.17;;
21806;SDS011;11065;50.786;7.840;2024-02-21T09:22:48;5.67;;;2.80;;
21806;SDS011;11065;50.786;7.840;2024-02-21T09:25:16;7.67;;;3.83;;
21806;SDS011;11065;50.786;7.840;2024-02-21T09:27:44;8.67;;;3.63;;
21806;SDS011;11065;50.786;7.840;2024-02-21T09:30:12;7.30;;;3.50;;
21806;SDS011;11065;50.786;7.840;2024-02-21T09:32:41;7.50;;;2.83;;
21806;SDS011;11065;50.786;7.840;2024-02-21T09:35:09;6.73;;;2.93;;
21806;SDS011;11065;50.786;7.840;2024-02-21T09:37:40;8.80;;;3.63;;
21806;SDS011;11065;50.786;7.840;2024-02-21T09:40:08;8.17;;;3.30;;
21806;SDS011;11065;50.786;7.840;2024-02-21T09:42:37;7.50;;;3.07;;
21806;SDS011;11065;50.786;7.840;2024-02-21T09:45:07;7.20;;;2.83;;
21806;SDS011;11065;50.786;7.840;2024-02-21T09:47:42;7.43;;;3.20;;
21806;SDS011;11065;50.786;7.840;2024-02-21T09:50:18;6.63;;;3.00;;
21806;SDS011;11065;50.786;7.840;2024-02-21T09:52:50;8.40;;;3.23;;
21806;SDS011;11065;50.786;7.840;2024-02-21T09:55:19;6.63;;;3.33;;
21806;SDS011;11065;50.786;7.840;2024-02-21T09:57:48;5.97;;;2.83;;
21806;SDS011;11065;50.786;7.840;2024-02-21T10:00:18;8.03;;;3.50;;
21806;SDS011;11065;50.786;7.840;2024-02-21T10:02:48;5.83;;;2.90;;
21806;SDS011;11065;50.786;7.840;2024-02-21T10:05:17;7.93;;;3.30;;
21806;SDS011;11065;50.786;7.840;2024-02-21T10:07:45;7.07;;;3.53;;
21806;SDS011;11065;50.786;7.840;2024-02-21T10:10:17;7.23;;;3.70;;
21806;SDS011;11065;50.786;7.840;2024-02-21T10:12:48;6.83;;;2.67;;
21806;SDS011;11065;50.786;7.840;2024-02-21T10:15:19;5.77;;;2.70;;
21806;SDS011;11065;50.786;7.840;2024-02-21T10:17:48;6.77;;;3.50;;
21806;SDS011;11065;50.786;7.840;2024-02-21T10:20:17;5.87;;;2.90;;
21806;SDS011;11065;50.786;7.840;2024-02-21T10:22:45;7.20;;;3.27;;
21806;SDS011;11065;50.786;7.840;2024-02-21T10:25:13;7.13;;;3.60;;
21806;SDS011;11065;50.786;7.840;2024-02-21T10:27:42;6.90;;;3.10;;
21806;SDS011;11065;50.786;7.840;2024-02-21T10:30:12;8.40;;;3.50;;
21806;SDS011;11065;50.786;7.840;2024-02-21T10:32:48;7.93;;;3.67;;
21806;SDS011;11065;50.786;7.840;2024-02-21T10:35:25;9.30;;;3.60;;
21806;SDS011;11065;50.786;7.840;2024-02-21T10:37:55;6.00;;;3.27;;
21806;SDS011;11065;50.786;7.840;2024-02-21T10:40:23;6.37;;;2.93;;
21806;SDS011;11065;50.786;7.840;2024-02-21T10:42:55;8.00;;;3.27;;
21806;SDS011;11065;50.786;7.840;2024-02-21T10:45:29;7.87;;;3.80;;
21806;SDS011;11065;50.786;7.840;2024-02-21T10:48:01;6.27;;;3.27;;
21806;SDS011;11065;50.786;7.840;2024-02-21T10:50:36;6.53;;;3.17;;
21806;SDS011;11065;50.786;7.840;2024-02-21T10:53:15;10.73;;;3.93;;
21806;SDS011;11065;50.786;7.840;2024-02-21T10:55:55;8.63;;;2.97;;
21806;SDS011;11065;50.786;7.840;2024-02-21T10:58:31;6.17;;;3.43;;
21806;SDS011;11065;50.786;7.840;2024-02-21T11:01:00;8.73;;;3.90;;
21806;SDS011;11065;50.786;7.840;2024-02-21T11:03:29;8.70;;;3.50;;
21806;SDS011;11065;50.786;7.840;2024-02-21T11:05:58;9.10;;;3.30;;
21806;SDS011;11065;50.786;7.840;2024-02-21T11:08:27;8.13;;;3.40;;
21806;SDS011;11065;50.786;7.840;2024-02-21T11:10:56;6.80;;;3.10;;
21806;SDS011;11065;50.786;7.840;2024-02-21T11:13:34;6.87;;;3.23;;
21806;SDS011;11065;50.786;7.840;2024-02-21T11:16:09;6.63;;;2.83;;
21806;SDS011;11065;50.786;7.840;2024-02-21T11:18:38;7.93;;;2.77;;
21806;SDS011;11065;50.786;7.840;2024-02-21T11:21:06;7.03;;;3.00;;
21806;SDS011;11065;50.786;7.840;2024-02-21T11:23:35;7.10;;;3.13;;
21806;SDS011;11065;50.786;7.840;2024-02-21T11:26:04;7.57;;;3.10;;
21806;SDS011;11065;50.786;7.840;2024-02-21T11:28:34;8.27;;;2.90;;
21806;SDS011;11065;50.786;7.840;2024-02-21T11:31:07;10.57;;;3.20;;
21806;SDS011;11065;50.786;7.840;2024-02-21T11:33:35;6.87;;;3.07;;
21806;SDS011;11065;50.786;7.840;2024-02-21T11:36:07;8.13;;;2.83;;
21806;SDS011;11065;50.786;7.840;2024-02-21T11:38:35;5.53;;;2.93;;
21806;SDS011;11065;50.786;7.840;2024-02-21T11:41:03;7.63;;;2.67;;
21806;SDS011;11065;50.786;7.840;2024-02-21T11:43:40;6.97;;;2.60;;
21806;SDS011;11065;50.786;7.840;2024-02-21T11:46:08;4.93;;;2.43;;
21806;SDS011;11065;50.786;7.840;2024-02-21T11:48:36;7.80;;;2.70;;
21806;SDS011;11065;50.786;7.840;2024-02-21T11:51:04;6.47;;;2.90;;
21806;SDS011;11065;50.786;7.840;2024-02-21T11:53:32;6.03;;;3.20;;
21806;SDS011;11065;50.786;7.840;2024-02-21T11:56:09;8.80;;;3.27;;
21806;SDS011;11065;50.786;7.840;2024-02-21T11:58:37;11.23;;;3.40;;
21806;SDS011;11065;50.786;7.840;2024-02-21T12:01:06;7.77;;;3.37;;
21806;SDS011;11065;50.786;7.840;2024-02-21T12:03:35;9.23;;;3.10;;
21806;SDS011;11065;50.786;7.840;2024-02-21T12:06:03;5.33;;;2.50;;
21806;SDS011;11065;50.786;7.840;2024-02-21T12:08:43;6.77;;;2.93;;
21806;SDS011;11065;50.786;7.840;2024-02-21T12:11:21;8.00;;;2.90;;
21806;SDS011;11065;50.786;7.840;2024-02-21T12:13:59;7.17;;;2.50;;
21806;SDS011;11065;50.786;7.840;2024-02-21T12:16:31;6.07;;;2.50;;
21806;SDS011;11065;50.786;7.840;2024-02-21T12:19:00;7.97;;;3.10;;
21806;SDS011;11065;50.786;7.840;2024-02-21T12:21:29;7.03;;;2.50;;
21806;SDS011;11065;50.786;7.840;2024-02-21T12:23:59;5.00;;;2.50;;
21806;SDS011;11065;50.786;7.840;2024-02-21T12:26:27;6.43;;;2.10;;
21806;SDS011;11065;50.786;7.840;2024-02-21T12:28:56;6.77;;;2.53;;
21806;SDS011;11065;50.786;7.840;2024-02-21T12:31:24;7.40;;;2.23;;
21806;SDS011;11065;50.786;7.840;2024-02-21T12:33:53;6.37;;;2.17;;
21806;SDS011;11065;50.786;7.840;2024-02-21T12:36:21;5.53;;;1.83;;
21806;SDS011;11065;50.786;7.840;2024-02-21T12:38:49;4.23;;;2.00;;
21806;SDS011;11065;50.786;7.840;2024-02-21T12:41:18;5.27;;;2.03;;
21806;SDS011;11065;50.786;7.840;2024-02-21T12:43:46;5.57;;;2.40;;
21806;SDS011;11065;50.786;7.840;2024-02-21T12:46:14;6.30;;;1.90;;
21806;SDS011;11065;50.786;7.840;2024-02-21T12:48:42;7.13;;;2.17;;
21806;SDS011;11065;50.786;7.840;2024-02-21T12:51:11;4.50;;;1.90;;
21806;SDS011;11065;50.786;7.840;2024-02-21T12:53:39;5.80;;;2.33;;
21806;SDS011;11065;50.786;7.840;2024-02-21T12:56:07;5.73;;;2.13;;
21806;SDS011;11065;50.786;7.840;2024-02-21T12:58:35;6.10;;;1.97;;
21806;SDS011;11065;50.786;7.840;2024-02-21T13:01:03;7.87;;;2.07;;
21806;SDS011;11065;50.786;7.840;2024-02-21T13:03:31;6.03;;;2.20;;
21806;SDS011;11065;50.786;7.840;2024-02-21T13:05:59;5.93;;;2.00;;
21806;SDS011;11065;50.786;7.840;2024-02-21T13:08:29;5.10;;;2.00;;
21806;SDS011;11065;50.786;7.840;2024-02-21T13:10:57;6.13;;;2.03;;
21806;SDS011;11065;50.786;7.840;2024-02-21T13:13:25;3.73;;;1.67;;
21806;SDS011;11065;50.786;7.840;2024-02-21T13:15:53;6.73;;;2.03;;
21806;SDS011;11065;50.786;7.840;2024-02-21T13:18:21;7.23;;;1.97;;
21806;SDS011;11065;50.786;7.840;2024-02-21T13:20:49;6.77;;;2.10;;
21806;SDS011;11065;50.786;7.840;2024-02-21T13:23:17;4.13;;;1.63;;
21806;SDS011;11065;50.786;7.840;2024-02-21T13:25:48;4.03;;;1.90;;
21806;SDS011;11065;50.786;7.840;2024-02-21T13:28:17;5.83;;;2.10;;
21806;SDS011;11065;50.786;7.840;2024-02-21T13:30:45;2.83;;;1.53;;
21806;SDS011;11065;50.786;7.840;2024-02-21T13:33:13;4.43;;;1.67;;
21806;SDS011;11065;50.786;7.840;2024-02-21T13:35:41;7.07;;;2.17;;
21806;SDS011;11065;50.786;7.840;2024-02-21T13:38:09;4.50;;;1.70;;
21806;SDS011;11065;50.786;7.840;2024-02-21T13:40:39;5.07;;;1.97;;
21806;SDS011;11065;50.786;7.840;2024-02-21T13:43:10;4.97;;;1.90;;
21806;SDS011;11065;50.786;7.840;2024-02-21T13:45:38;3.83;;;1.17;;
21806;SDS011;11065;50.786;7.840;2024-02-21T13:48:09;6.63;;;2.03;;
21806;SDS011;11065;50.786;7.840;2024-02-21T13:50:41;4.37;;;1.50;;
21806;SDS011;11065;50.786;7.840;2024-02-21T13:53:10;4.43;;;1.30;;
21806;SDS011;11065;50.786;7.840;2024-02-21T13:55:38;4.13;;;1.20;;
21806;SDS011;11065;50.786;7.840;2024-02-21T13:58:07;4.13;;;1.40;;
21806;SDS011;11065;50.786;7.840;2024-02-21T14:00:36;4.43;;;1.50;;
21806;SDS011;11065;50.786;7.840;2024-02-21T14:03:04;6.47;;;1.33;;
21806;SDS011;11065;50.786;7.840;2024-02-21T14:05:32;4.70;;;1.33;;
21806;SDS011;11065;50.786;7.840;2024-02-21T14:08:00;5.07;;;1.20;;
21806;SDS011;11065;50.786;7.840;2024-02-21T14:10:28;4.37;;;1.53;;
21806;SDS011;11065;50.786;7.840;2024-02-21T14:12:56;3.43;;;1.20;;
21806;SDS011;11065;50.786;7.840;2024-02-21T14:15:24;3.73;;;1.77;;
21806;SDS011;11065;50.786;7.840;2024-02-21T14:17:53;3.57;;;1.47;;
21806;SDS011;11065;50.786;7.840;2024-02-21T14:20:22;4.63;;;1.30;;
21806;SDS011;11065;50.786;7.840;2024-02-21T14:22:50;3.67;;;0.93;;
21806;SDS011;11065;50.786;7.840;2024-02-21T14:25:18;4.80;;;1.37;;
21806;SDS011;11065;50.786;7.840;2024-02-21T14:27:46;4.97;;;1.50;;
21806;SDS011;11065;50.786;7.840;2024-02-21T14:30:14;3.23;;;1.03;;
21806;SDS011;11065;50.786;7.840;2024-02-21T14:32:44;5.10;;;1.40;;
21806;SDS011;11065;50.786;7.840;2024-02-21T14:35:15;4.50;;;1.30;;
21806;SDS011;11065;50.786;7.840;2024-02-21T14:37:43;3.97;;;1.30;;
21806;SDS011;11065;50.786;7.840;2024-02-21T14:40:12;3.60;;;1.30;;
21806;SDS011;11065;50.786;7.840;2024-02-21T14:42:40;6.10;;;1.90;;
21806;SDS011;11065;50.786;7.840;2024-02-21T14:45:09;2.50;;;1.40;;
21806;SDS011;11065;50.786;7.840;2024-02-21T14:47:37;5.93;;;1.70;;
21806;SDS011;11065;50.786;7.840;2024-02-21T14:50:05;4.00;;;1.20;;
21806;SDS011;11065;50.786;7.840;2024-02-21T14:52:35;5.57;;;1.80;;
21806;SDS011;11065;50.786;7.840;2024-02-21T14:55:05;2.67;;;1.10;;